Time;durP1;ratioP1;P1;durP2;ratioP2;P2;SDS_P1;SDS_P2;PMS_P1;PMS_P2;Temp;Humidity;BMP_temperature;BMP_pressure;BME280_temperature;BME280_humidity;BME280_pressure;Samples;Min_cycle;Max_cycle;Signal;HPM_P1;HPM_P2
2022/01/16 00:04:37;;;;;;;11.55;7.00;;;28.50;78.40;;;;;;4984196;28;20234;-45
2022/01/16 00:07:04;;;;;;;10.52;7.53;;;28.50;78.60;;;;;;4984026;28;20026;-45
2022/01/16 00:09:35;;;;;;;10.32;7.57;;;28.50;78.60;;;;;;4983962;28;20303;-47
2022/01/16 00:12:05;;;;;;;9.40;6.93;;;28.50;78.60;;;;;;4982990;28;20050;-47
2022/01/16 00:14:33;;;;;;;14.57;7.20;;;28.50;78.50;;;;;;4983641;28;20053;-47
2022/01/16 00:17:03;;;;;;;10.73;7.65;;;28.50;78.40;;;;;;4984029;28;20378;-44
2022/01/16 00:19:32;;;;;;;10.02;7.32;;;28.50;78.60;;;;;;4983886;28;20018;-45
2022/01/16 00:21:58;;;;;;;11.18;7.22;;;28.50;78.20;;;;;;4983899;28;20022;-44
2022/01/16 00:24:25;;;;;;;11.05;7.57;;;28.50;78.20;;;;;;4983596;28;20023;-44
2022/01/16 00:26:52;;;;;;;11.90;7.75;;;28.40;77.90;;;;;;4983796;28;20030;-45
2022/01/16 00:29:18;;;;;;;9.88;7.75;;;28.40;77.70;;;;;;4982185;28;20242;-45
2022/01/16 00:31:46;;;;;;;10.05;7.30;;;28.40;77.60;;;;;;4983541;28;20043;-45
2022/01/16 00:34:14;;;;;;;10.60;7.20;;;28.40;77.30;;;;;;4983405;28;20329;-51
2022/01/16 00:36:42;;;;;;;8.23;6.97;;;28.40;77.20;;;;;;4965498;28;20030;-46
2022/01/16 00:39:09;;;;;;;8.82;6.80;;;28.40;77.00;;;;;;4982414;28;20315;-44
2022/01/16 00:41:35;;;;;;;8.55;7.00;;;28.40;76.80;;;;;;4983722;28;20094;-44
2022/01/16 00:44:06;;;;;;;8.25;6.85;;;28.40;76.80;;;;;;4983494;28;20052;-46
2022/01/16 00:46:37;;;;;;;9.93;7.00;;;28.40;76.60;;;;;;4983414;28;20019;-45
2022/01/16 00:49:05;;;;;;;9.35;7.03;;;28.40;76.80;;;;;;4982396;28;20053;-50
2022/01/16 00:51:34;;;;;;;12.57;7.18;;;28.40;76.40;;;;;;4982191;28;20065;-47
2022/01/16 00:54:00;;;;;;;10.32;6.68;;;28.30;76.00;;;;;;4982373;28;20196;-47
2022/01/16 00:56:30;;;;;;;9.27;6.60;;;28.40;75.60;;;;;;4982273;28;20093;-46
2022/01/16 00:58:59;;;;;;;10.43;6.75;;;28.40;75.20;;;;;;4982919;28;20027;-45
2022/01/16 01:01:26;;;;;;;9.23;5.95;;;28.30;75.10;;;;;;4983015;28;20019;-46
2022/01/16 01:03:53;;;;;;;11.63;6.55;;;28.30;75.10;;;;;;4983025;28;20132;-49
2022/01/16 01:06:23;;;;;;;11.75;6.78;;;28.30;74.70;;;;;;4980435;28;20031;-46
2022/01/16 01:08:51;;;;;;;169.13;17.52;;;28.30;74.40;;;;;;4991873;28;20041;-49
2022/01/16 01:11:27;;;;;;;30.27;7.75;;;28.30;74.20;;;;;;4974093;28;20062;-45
2022/01/16 01:14:21;;;;;;;20.00;6.93;;;28.30;73.90;;;;;;4976683;28;20030;-47
2022/01/16 01:16:51;;;;;;;16.25;7.10;;;28.30;73.40;;;;;;4981653;28;20093;-52
2022/01/16 01:19:21;;;;;;;12.43;6.40;;;28.20;73.50;;;;;;4982790;28;20019;-44
2022/01/16 01:21:48;;;;;;;11.13;6.35;;;28.30;73.20;;;;;;4982709;28;20085;-50
2022/01/16 01:24:15;;;;;;;10.73;6.80;;;28.20;73.00;;;;;;4981607;28;20031;-44
2022/01/16 01:26:56;;;;;;;9.98;6.63;;;28.20;72.80;;;;;;4980137;28;20018;-46
2022/01/16 01:29:31;;;;;;;13.02;6.47;;;28.20;72.90;;;;;;4981674;28;20034;-45
2022/01/16 01:31:59;;;;;;;13.40;6.60;;;28.20;73.10;;;;;;4981613;28;20035;-51
2022/01/16 01:34:25;;;;;;;12.00;6.47;;;28.20;72.60;;;;;;4977202;28;20022;-48
2022/01/16 01:36:53;;;;;;;10.90;6.40;;;28.20;72.50;;;;;;4974418;28;20030;-48
2022/01/16 01:39:21;;;;;;;16.77;7.00;;;28.10;72.40;;;;;;4981654;28;20019;-52
2022/01/16 01:41:54;;;;;;;16.40;6.68;;;28.20;72.30;;;;;;4971385;28;20037;-48
2022/01/16 01:52:35;;;;;;;11.48;6.93;;;28.10;72.20;;;;;;4976346;28;20048;-47
2022/01/16 01:55:06;;;;;;;12.38;7.10;;;28.10;72.20;;;;;;4964580;28;20019;-45
2022/01/16 01:57:35;;;;;;;9.10;6.50;;;28.10;72.80;;;;;;4962035;28;20054;-44
2022/01/16 02:00:03;;;;;;;9.35;6.63;;;28.10;72.00;;;;;;4972607;28;20026;-47
2022/01/16 02:02:37;;;;;;;9.05;6.63;;;28.00;71.70;;;;;;4982292;28;20054;-47
2022/01/16 02:05:07;;;;;;;12.38;7.25;;;28.10;71.70;;;;;;4976421;28;20034;-47
2022/01/16 02:07:33;;;;;;;13.05;7.10;;;28.00;71.70;;;;;;4970163;28;20023;-45
2022/01/16 02:10:02;;;;;;;12.60;6.60;;;28.10;71.60;;;;;;4979526;28;20220;-48
2022/01/16 02:12:30;;;;;;;10.05;6.55;;;28.00;71.40;;;;;;4978806;28;20197;-47
2022/01/16 02:15:06;;;;;;;10.40;6.43;;;28.00;71.60;;;;;;4963365;28;20064;-46
2022/01/16 02:48:41;;;;;;;;;;;28.00;70.70;;;;;;5076479;28;20028;-56
2022/01/16 02:51:07;;;;;;;8.23;6.25;;;28.00;70.80;;;;;;5073471;28;19909;-53
2022/01/16 02:53:35;;;;;;;12.07;6.15;;;28.00;70.70;;;;;;5066851;28;20020;-53
2022/01/16 02:56:02;;;;;;;10.32;6.10;;;28.00;70.50;;;;;;5065145;28;20032;-56
2022/01/16 02:58:28;;;;;;;7.30;5.90;;;28.00;70.30;;;;;;5077265;28;20028;-53
2022/01/16 03:00:56;;;;;;;6.97;5.63;;;28.00;70.30;;;;;;5083249;28;20098;-55
2022/01/16 03:03:26;;;;;;;8.52;6.18;;;28.00;70.10;;;;;;5071869;28;20283;-53
2022/01/16 03:05:53;;;;;;;7.88;5.80;;;28.00;69.90;;;;;;5083126;28;20016;-52
2022/01/16 03:08:22;;;;;;;9.45;6.07;;;28.00;69.80;;;;;;5083351;28;20355;-53
2022/01/16 03:13:20;;;;;;;7.20;5.75;;;28.00;69.70;;;;;;5083371;28;20013;-53
2022/01/16 03:15:50;;;;;;;8.90;6.00;;;28.00;69.70;;;;;;5076884;28;20025;-52
2022/01/16 03:23:30;;;;;;;7.10;6.03;;;28.00;69.40;;;;;;5048368;28;20028;-56
2022/01/16 03:25:57;;;;;;;7.35;5.57;;;28.00;69.30;;;;;;5063185;28;20025;-54
2022/01/16 03:28:25;;;;;;;10.38;5.88;;;28.00;69.20;;;;;;5069905;28;20079;-51
2022/01/16 03:30:53;;;;;;;8.02;5.85;;;28.00;69.20;;;;;;5059492;28;20203;-52
2022/01/16 03:33:20;;;;;;;7.07;5.82;;;27.90;69.70;;;;;;5062990;28;20058;-55
2022/01/16 03:35:48;;;;;;;8.15;6.20;;;27.90;69.00;;;;;;5064664;28;20171;-55
2022/01/16 03:38:15;;;;;;;8.35;5.63;;;27.90;69.00;;;;;;5049002;28;20100;-53
2022/01/16 03:40:43;;;;;;;7.53;5.43;;;27.90;68.90;;;;;;5066598;28;20031;-56
2022/01/16 03:43:14;;;;;;;9.45;6.07;;;27.90;68.80;;;;;;5059158;28;20103;-59
2022/01/16 03:45:43;;;;;;;7.00;5.70;;;27.90;68.70;;;;;;5055442;28;20025;-53
2022/01/16 03:48:10;;;;;;;8.57;6.18;;;27.90;68.60;;;;;;5066075;28;20536;-52
2022/01/16 03:50:37;;;;;;;11.38;7.03;;;27.90;68.60;;;;;;5065829;28;20028;-54
2022/01/16 03:53:04;;;;;;;13.75;7.45;;;27.90;68.60;;;;;;5066057;28;20071;-52
2022/01/16 03:55:31;;;;;;;19.85;9.23;;;27.90;68.60;;;;;;5066097;28;20028;-53
2022/01/16 03:57:58;;;;;;;19.48;8.90;;;27.90;68.70;;;;;;5066185;28;20028;-53
2022/01/16 04:00:25;;;;;;;14.75;8.35;;;27.90;68.80;;;;;;5065703;28;20094;-55
2022/01/16 04:02:53;;;;;;;12.27;7.70;;;27.90;68.70;;;;;;5066450;28;20029;-56
2022/01/16 04:05:20;;;;;;;12.93;7.25;;;27.90;68.80;;;;;;5065990;28;20218;-54
2022/01/16 04:07:46;;;;;;;11.65;6.93;;;27.90;68.70;;;;;;5066520;28;20263;-53
2022/01/16 04:10:13;;;;;;;9.05;7.05;;;27.90;68.90;;;;;;5066171;28;20017;-53
2022/01/16 04:12:40;;;;;;;11.23;6.97;;;27.80;68.80;;;;;;5066646;28;20029;-60
2022/01/16 04:17:39;;;;;;;10.85;7.28;;;27.80;68.90;;;;;;5066408;28;20096;-54
2022/01/16 04:20:07;;;;;;;11.02;7.55;;;27.80;68.80;;;;;;5065729;28;20059;-53
2022/01/16 04:22:33;;;;;;;10.40;7.03;;;27.80;68.80;;;;;;5066595;28;20032;-62
2022/01/16 04:25:00;;;;;;;12.02;6.95;;;27.80;68.80;;;;;;5065790;28;20028;-55
2022/01/16 04:27:26;;;;;;;12.90;6.75;;;27.80;68.80;;;;;;5066042;28;20072;-52
2022/01/16 04:29:53;;;;;;;12.98;7.63;;;27.80;68.70;;;;;;5066022;28;20025;-54
2022/01/16 04:32:19;;;;;;;13.40;7.30;;;27.80;68.70;;;;;;5066309;28;20021;-55
2022/01/16 04:34:46;;;;;;;13.48;7.88;;;27.70;68.60;;;;;;5065445;28;20080;-52
2022/01/16 04:37:13;;;;;;;10.75;7.07;;;27.70;68.60;;;;;;5066029;28;20289;-56
2022/01/16 04:39:48;;;;;;;13.00;7.43;;;27.80;68.70;;;;;;5065738;28;20036;-54
2022/01/16 04:45:00;;;;;;;10.85;6.80;;;27.70;68.40;;;;;;5065511;28;20024;-52
2022/01/16 04:47:26;;;;;;;9.70;6.53;;;27.70;68.40;;;;;;5065166;28;20057;-53
2022/01/16 04:49:53;;;;;;;8.52;6.30;;;27.70;68.40;;;;;;5065399;28;20097;-53
2022/01/16 04:52:19;;;;;;;9.40;5.80;;;27.70;68.30;;;;;;5065839;28;20345;-52
2022/01/16 04:54:46;;;;;;;7.18;5.70;;;27.70;68.30;;;;;;5065673;28;20020;-56
2022/01/16 04:57:13;;;;;;;7.97;6.45;;;27.70;68.20;;;;;;5065704;28;20025;-54
2022/01/16 04:59:40;;;;;;;7.65;6.20;;;27.70;68.80;;;;;;5065657;28;20017;-56
2022/01/16 05:02:07;;;;;;;8.43;6.40;;;27.70;68.10;;;;;;5065564;28;20033;-57
2022/01/16 05:04:33;;;;;;;8.30;6.20;;;27.70;68.20;;;;;;5065453;28;20017;-58
2022/01/16 05:07:00;;;;;;;8.80;5.90;;;27.70;68.10;;;;;;5065255;28;20078;-56
2022/01/16 05:09:26;;;;;;;6.03;5.43;;;27.70;68.00;;;;;;5065169;28;20020;-55
2022/01/16 05:11:57;;;;;;;7.57;5.90;;;27.70;67.90;;;;;;5065355;28;20037;-52
2022/01/16 05:17:08;;;;;;;6.75;5.43;;;27.60;67.90;;;;;;5065478;28;20024;-54
2022/01/16 05:19:35;;;;;;;8.20;6.35;;;27.70;67.90;;;;;;5064903;28;20281;-53
2022/01/16 05:22:01;;;;;;;7.13;5.82;;;27.60;67.90;;;;;;5064862;28;20029;-54
2022/01/16 05:24:32;;;;;;;8.32;6.57;;;27.60;67.80;;;;;;5064966;28;20028;-53
2022/01/16 05:26:59;;;;;;;7.38;6.10;;;27.60;67.90;;;;;;5064960;28;20293;-53
2022/01/16 05:29:26;;;;;;;8.73;6.40;;;27.70;67.90;;;;;;5064542;28;20024;-59
2022/01/16 05:31:52;;;;;;;9.50;6.55;;;27.60;67.80;;;;;;5064631;28;20032;-55
2022/01/16 05:34:19;;;;;;;11.82;7.10;;;27.60;67.80;;;;;;5064549;28;20210;-57
2022/01/16 05:36:46;;;;;;;9.93;6.63;;;27.60;67.90;;;;;;5064584;28;20048;-56
2022/01/16 05:39:13;;;;;;;10.85;7.10;;;27.60;67.90;;;;;;5064346;28;20021;-53
2022/01/16 05:41:40;;;;;;;9.77;7.00;;;27.60;68.00;;;;;;5064752;28;20029;-56
2022/01/16 05:44:06;;;;;;;12.70;7.68;;;27.60;68.10;;;;;;5064280;28;20021;-53
2022/01/16 05:46:33;;;;;;;9.73;6.82;;;27.60;68.10;;;;;;5064324;28;20049;-59
2022/01/16 05:48:59;;;;;;;8.93;6.80;;;27.60;68.10;;;;;;5064382;28;20092;-55
2022/01/16 05:51:26;;;;;;;9.02;6.82;;;27.60;68.20;;;;;;5064441;28;20175;-55
2022/01/16 05:53:52;;;;;;;12.18;6.78;;;27.50;68.20;;;;;;5064087;28;20016;-52
2022/01/16 05:56:19;;;;;;;10.73;6.85;;;27.50;68.30;;;;;;5064349;28;20021;-53
2022/01/16 05:58:46;;;;;;;13.15;7.35;;;27.50;68.30;;;;;;5063721;28;20052;-59
2022/01/16 06:01:12;;;;;;;11.07;6.53;;;27.50;68.40;;;;;;5064154;28;20033;-57
2022/01/16 06:03:39;;;;;;;7.18;6.28;;;27.50;68.50;;;;;;5064238;28;20021;-52
2022/01/16 06:06:05;;;;;;;7.63;5.75;;;27.40;68.30;;;;;;5064163;28;20036;-51
2022/01/16 06:08:32;;;;;;;8.43;6.35;;;27.50;68.30;;;;;;5063648;28;20217;-53
2022/01/16 06:10:59;;;;;;;6.93;6.22;;;27.50;68.40;;;;;;5063823;28;20071;-52
2022/01/16 06:13:25;;;;;;;9.13;6.65;;;27.40;68.30;;;;;;5064212;28;20017;-59
2022/01/16 06:15:52;;;;;;;9.45;6.25;;;27.40;68.30;;;;;;5063808;28;20305;-54
2022/01/16 06:18:18;;;;;;;9.45;6.78;;;27.40;68.30;;;;;;5063815;28;20302;-54
2022/01/16 06:20:47;;;;;;;10.20;7.30;;;27.40;68.40;;;;;;5064007;28;20060;-53
2022/01/16 06:23:14;;;;;;;11.50;7.57;;;27.40;68.60;;;;;;5063679;28;20021;-52
2022/01/16 06:25:41;;;;;;;10.65;6.88;;;27.40;68.90;;;;;;5063761;28;20248;-52
2022/01/16 06:28:07;;;;;;;10.13;6.55;;;27.40;69.10;;;;;;5063751;28;20028;-56
2022/01/16 06:30:35;;;;;;;11.80;6.75;;;27.40;69.30;;;;;;5063782;28;20021;-57
2022/01/16 06:33:06;;;;;;;8.65;6.25;;;27.40;69.20;;;;;;5063609;28;20320;-53
2022/01/16 06:35:33;;;;;;;11.18;6.32;;;27.30;69.20;;;;;;5063535;28;20302;-52
2022/01/16 06:37:59;;;;;;;7.85;5.90;;;27.30;69.20;;;;;;5063714;28;20028;-55
2022/01/16 06:40:26;;;;;;;7.32;5.72;;;27.30;69.10;;;;;;5063727;28;20345;-53
2022/01/16 06:42:52;;;;;;;7.30;5.90;;;27.30;69.10;;;;;;5063549;28;20097;-52
2022/01/16 06:45:19;;;;;;;8.18;5.50;;;27.30;69.20;;;;;;5063416;28;20043;-59
2022/01/16 06:47:45;;;;;;;8.60;6.30;;;27.30;69.20;;;;;;5063306;28;20077;-57
2022/01/16 06:50:12;;;;;;;8.73;6.60;;;27.30;69.30;;;;;;5063506;28;20201;-54
2022/01/16 06:52:39;;;;;;;9.52;6.30;;;27.30;69.20;;;;;;5063386;28;20088;-53
2022/01/16 06:55:06;;;;;;;7.00;6.30;;;27.30;69.30;;;;;;5063572;28;20306;-61
2022/01/16 06:57:33;;;;;;;8.65;6.43;;;27.30;69.20;;;;;;5063655;28;20246;-57
2022/01/16 06:59:59;;;;;;;9.38;6.38;;;27.30;69.20;;;;;;5063307;28;20028;-53
2022/01/16 07:02:27;;;;;;;7.50;6.47;;;27.20;69.10;;;;;;5063895;28;20261;-54
2022/01/16 07:04:53;;;;;;;7.45;6.65;;;27.20;69.00;;;;;;5063656;28;20021;-55
2022/01/16 07:07:20;;;;;;;8.55;6.30;;;27.20;69.10;;;;;;5063693;28;20028;-54
2022/01/16 07:09:47;;;;;;;10.20;6.88;;;27.20;69.10;;;;;;5063988;28;20206;-53
2022/01/16 07:12:14;;;;;;;8.80;7.20;;;27.20;69.10;;;;;;5067980;28;20036;-57
2022/01/16 07:14:40;;;;;;;11.43;7.45;;;27.20;69.10;;;;;;5067120;28;20021;-53
2022/01/16 07:17:07;;;;;;;10.95;7.20;;;27.20;69.10;;;;;;5067779;28;20032;-58
2022/01/16 07:19:33;;;;;;;9.57;7.57;;;27.20;69.10;;;;;;5067743;28;20023;-53
2022/01/16 07:22:00;;;;;;;12.73;8.23;;;27.20;69.20;;;;;;5067317;28;20029;-55
2022/01/16 07:24:27;;;;;;;11.70;8.10;;;27.20;69.20;;;;;;5067219;28;20023;-55
2022/01/16 07:26:54;;;;;;;13.10;7.55;;;27.20;69.30;;;;;;5067649;28;20208;-55
2022/01/16 07:29:21;;;;;;;9.70;6.80;;;27.20;69.20;;;;;;5066722;28;20198;-56
2022/01/16 07:31:48;;;;;;;10.77;7.25;;;27.20;69.10;;;;;;5066693;28;20033;-53
2022/01/16 07:34:14;;;;;;;10.52;7.95;;;27.20;69.00;;;;;;5066819;28;20016;-58
2022/01/16 07:36:41;;;;;;;10.80;6.85;;;27.20;69.00;;;;;;5066900;28;20047;-53
2022/01/16 07:39:07;;;;;;;11.32;7.03;;;27.20;68.90;;;;;;5066584;28;20336;-52
2022/01/16 07:41:34;;;;;;;10.77;6.53;;;27.10;68.90;;;;;;5067050;28;20025;-62
2022/01/16 07:44:01;;;;;;;9.55;6.80;;;27.10;68.90;;;;;;5066840;28;20028;-56
2022/01/16 07:46:28;;;;;;;10.40;7.15;;;27.10;68.60;;;;;;5066411;28;20110;-53
2022/01/16 07:48:55;;;;;;;8.52;6.80;;;27.10;68.70;;;;;;5066508;28;20326;-52
2022/01/16 07:51:22;;;;;;;7.40;6.43;;;27.10;68.60;;;;;;5066595;28;20029;-61
2022/01/16 07:53:49;;;;;;;12.95;7.00;;;27.10;68.50;;;;;;5066500;28;20019;-53
2022/01/16 07:56:15;;;;;;;12.27;7.20;;;27.10;68.50;;;;;;5066544;28;20052;-54
2022/01/16 07:58:42;;;;;;;8.85;7.07;;;27.10;68.50;;;;;;5066408;28;20025;-56
2022/01/16 08:01:09;;;;;;;8.82;6.40;;;27.10;68.50;;;;;;5066610;28;20072;-55
2022/01/16 08:03:35;;;;;;;9.88;6.70;;;27.10;68.50;;;;;;5066280;28;20029;-56
2022/01/16 08:06:02;;;;;;;8.85;6.45;;;27.10;68.40;;;;;;5066725;28;20116;-56
2022/01/16 08:08:29;;;;;;;7.68;6.80;;;27.10;68.50;;;;;;5066162;28;20025;-54
2022/01/16 08:10:55;;;;;;;9.10;6.80;;;27.10;68.50;;;;;;5066488;28;20080;-55
2022/01/16 08:13:22;;;;;;;8.15;6.38;;;27.10;68.40;;;;;;5066238;28;20012;-54
2022/01/16 08:15:48;;;;;;;8.70;6.30;;;27.10;68.40;;;;;;5066396;28;20044;-54
2022/01/16 08:18:15;;;;;;;8.55;6.60;;;27.10;68.40;;;;;;5065944;28;20028;-53
2022/01/16 08:20:42;;;;;;;9.50;6.88;;;27.10;68.50;;;;;;5065974;28;20025;-56
2022/01/16 08:23:09;;;;;;;9.35;7.03;;;27.00;68.40;;;;;;5065637;28;20021;-53
2022/01/16 08:25:35;;;;;;;10.55;6.80;;;27.00;68.40;;;;;;5065848;28;20305;-61
2022/01/16 08:28:02;;;;;;;10.02;6.80;;;27.00;68.40;;;;;;5065715;28;20063;-53
2022/01/16 08:30:28;;;;;;;15.13;7.55;;;27.10;68.60;;;;;;5065599;28;20048;-53
2022/01/16 08:32:55;;;;;;;10.20;7.60;;;27.00;68.60;;;;;;5065758;28;20021;-53
2022/01/16 08:35:22;;;;;;;10.05;7.13;;;27.10;68.70;;;;;;5065851;28;20013;-53
2022/01/16 08:37:49;;;;;;;9.82;7.35;;;27.00;68.70;;;;;;5065956;28;20100;-52
2022/01/16 08:40:15;;;;;;;9.98;7.60;;;27.00;68.80;;;;;;5065806;28;20332;-53
2022/01/16 08:42:42;;;;;;;10.68;7.47;;;27.00;69.00;;;;;;5066107;28;20307;-54
2022/01/16 08:45:09;;;;;;;11.23;7.68;;;27.00;69.20;;;;;;5065426;28;20024;-60
2022/01/16 08:47:36;;;;;;;11.30;7.18;;;27.00;69.30;;;;;;5065480;28;20056;-58
2022/01/16 08:50:04;;;;;;;9.23;6.50;;;27.00;69.40;;;;;;5065447;28;20066;-56
2022/01/16 08:52:31;;;;;;;10.90;6.80;;;26.90;69.50;;;;;;5065752;28;20037;-55
2022/01/16 08:54:57;;;;;;;12.07;7.10;;;26.90;69.50;;;;;;5065357;28;20033;-53
2022/01/16 08:57:24;;;;;;;9.35;7.35;;;26.90;69.60;;;;;;5065571;28;20108;-53
2022/01/16 08:59:51;;;;;;;7.90;6.80;;;26.90;69.70;;;;;;5065307;28;20028;-58
2022/01/16 09:02:17;;;;;;;8.25;6.70;;;26.90;69.80;;;;;;5065976;28;20029;-55
2022/01/16 09:04:44;;;;;;;8.52;7.15;;;26.90;69.80;;;;;;5065537;28;20210;-57
2022/01/16 09:07:10;;;;;;;9.02;6.88;;;26.90;69.90;;;;;;5065528;28;20028;-53
2022/01/16 09:09:37;;;;;;;8.40;6.88;;;26.90;69.90;;;;;;5065189;28;20021;-56
2022/01/16 09:12:04;;;;;;;9.80;6.88;;;26.90;69.90;;;;;;5065571;28;20025;-59
2022/01/16 09:14:30;;;;;;;7.57;6.78;;;26.90;70.00;;;;;;5065026;28;20023;-53
2022/01/16 09:16:57;;;;;;;9.95;6.85;;;26.80;69.90;;;;;;5065007;28;20029;-55
2022/01/16 09:19:23;;;;;;;8.45;6.82;;;26.80;69.80;;;;;;5065304;28;20372;-60
2022/01/16 09:21:50;;;;;;;8.45;6.80;;;26.80;69.90;;;;;;5064945;28;20041;-54
2022/01/16 09:24:17;;;;;;;8.55;6.72;;;26.80;70.00;;;;;;5064623;28;20021;-53
2022/01/16 09:26:43;;;;;;;10.38;6.50;;;26.80;70.10;;;;;;5065019;28;20036;-56
2022/01/16 09:29:10;;;;;;;8.80;6.80;;;26.80;70.10;;;;;;5064590;28;20143;-53
2022/01/16 09:31:36;;;;;;;9.93;7.25;;;26.80;70.30;;;;;;5064704;28;20027;-53
2022/01/16 09:34:03;;;;;;;9.02;7.47;;;26.80;70.40;;;;;;5064173;28;20017;-59
2022/01/16 09:36:29;;;;;;;12.15;7.60;;;26.80;70.60;;;;;;5064785;28;20025;-54
2022/01/16 09:38:56;;;;;;;9.63;7.05;;;26.80;70.80;;;;;;5064350;28;20025;-52
2022/01/16 09:41:23;;;;;;;11.15;7.30;;;26.80;70.90;;;;;;5064661;28;20091;-55
2022/01/16 09:43:50;;;;;;;7.30;6.60;;;26.80;71.10;;;;;;5064308;28;20025;-53
2022/01/16 09:46:17;;;;;;;8.43;6.90;;;26.80;71.20;;;;;;5064228;28;20083;-54
2022/01/16 09:48:44;;;;;;;9.35;7.13;;;26.80;71.40;;;;;;5064387;28;20037;-54
2022/01/16 09:51:10;;;;;;;11.02;7.40;;;26.70;71.60;;;;;;5064545;28;20021;-58
2022/01/16 09:53:41;;;;;;;8.00;7.20;;;26.70;71.60;;;;;;5064157;28;20021;-53
2022/01/16 09:56:09;;;;;;;10.35;7.05;;;26.70;71.70;;;;;;5064429;28;20025;-54
2022/01/16 09:58:35;;;;;;;12.57;7.47;;;26.70;71.90;;;;;;5064206;28;20040;-53
2022/01/16 10:01:03;;;;;;;14.43;8.90;;;26.70;72.10;;;;;;5064108;28;20364;-53
2022/01/16 10:03:35;;;;;;;14.23;8.93;;;26.70;72.30;;;;;;5064204;28;20028;-52
2022/01/16 10:06:12;;;;;;;13.48;9.02;;;26.70;72.30;;;;;;5064234;28;20029;-53
2022/01/16 10:08:41;;;;;;;14.90;9.55;;;26.70;72.40;;;;;;5063964;28;20036;-52
2022/01/16 10:11:27;;;;;;;13.57;8.77;;;26.70;72.70;;;;;;5064140;28;20025;-52
2022/01/16 10:14:09;;;;;;;12.55;8.43;;;26.60;72.80;;;;;;5063824;28;20218;-55
2022/01/16 10:16:40;;;;;;;11.45;7.82;;;26.60;72.80;;;;;;5064061;28;20091;-53
2022/01/16 10:19:27;;;;;;;10.70;7.82;;;26.60;72.90;;;;;;5063930;28;20031;-57
2022/01/16 10:22:06;;;;;;;10.55;8.18;;;26.60;73.20;;;;;;5064288;28;20035;-52
2022/01/16 10:24:39;;;;;;;12.50;8.02;;;26.60;73.40;;;;;;5063988;28;20066;-56
2022/01/16 10:27:08;;;;;;;10.35;7.55;;;26.60;73.50;;;;;;5064096;28;20067;-59
2022/01/16 10:29:42;;;;;;;12.13;8.10;;;26.60;73.40;;;;;;5063924;28;20013;-55
2022/01/16 10:32:19;;;;;;;11.15;7.85;;;26.60;73.50;;;;;;5064270;28;20023;-53
2022/01/16 10:34:49;;;;;;;11.35;7.90;;;26.60;73.50;;;;;;5063666;28;20021;-54
2022/01/16 10:37:25;;;;;;;12.00;8.07;;;26.60;73.50;;;;;;5064032;28;20111;-54
2022/01/16 10:40:07;;;;;;;12.15;7.55;;;26.60;73.80;;;;;;5063679;28;20094;-53
2022/01/16 10:42:35;;;;;;;11.93;8.13;;;26.60;73.90;;;;;;5063935;28;20036;-52
2022/01/16 10:45:11;;;;;;;10.77;7.95;;;26.60;74.10;;;;;;5066780;28;20028;-54
2022/01/16 10:47:47;;;;;;;12.50;7.55;;;26.60;74.30;;;;;;5067566;28;20348;-54
2022/01/16 10:50:17;;;;;;;13.82;7.80;;;26.60;74.40;;;;;;5067736;28;20028;-53
2022/01/16 10:52:53;;;;;;;12.93;8.60;;;26.60;74.20;;;;;;5067944;28;20328;-53
2022/01/16 10:55:23;;;;;;;10.45;7.60;;;26.50;74.10;;;;;;5067734;28;20021;-52
2022/01/16 10:57:50;;;;;;;10.98;7.80;;;26.50;74.00;;;;;;5067925;28;20032;-57
2022/01/16 11:00:18;;;;;;;12.55;7.85;;;26.50;73.90;;;;;;5067446;28;20028;-57
2022/01/16 11:02:50;;;;;;;14.60;8.15;;;26.50;73.90;;;;;;5067905;28;20032;-61
2022/01/16 11:05:22;;;;;;;15.75;8.20;;;26.50;73.80;;;;;;5067588;28;20023;-56
2022/01/16 11:08:03;;;;;;;16.65;8.85;;;26.50;73.70;;;;;;5067815;28;20040;-53
2022/01/16 11:10:39;;;;;;;20.90;8.13;;;26.50;73.60;;;;;;5066940;28;20021;-53
2022/01/16 11:13:08;;;;;;;36.60;8.90;;;26.50;73.60;;;;;;5067359;28;20013;-57
2022/01/16 11:15:38;;;;;;;18.08;8.18;;;26.50;73.60;;;;;;5067163;28;20043;-55
2022/01/16 11:18:07;;;;;;;15.32;7.95;;;26.50;73.60;;;;;;5067321;28;20193;-58
2022/01/16 11:20:36;;;;;;;19.98;8.70;;;26.50;73.50;;;;;;5067063;28;20045;-55
2022/01/16 11:26:04;;;;;;;24.45;8.75;;;26.40;73.20;;;;;;5067216;28;20222;-52
2022/01/16 11:28:31;;;;;;;26.08;8.68;;;26.40;73.10;;;;;;5066648;28;20044;-52
2022/01/16 11:31:00;;;;;;;14.95;7.85;;;26.40;73.20;;;;;;5066950;28;20025;-54
2022/01/16 11:33:29;;;;;;;14.82;7.72;;;26.40;73.10;;;;;;5066989;28;20090;-54
2022/01/16 11:36:06;;;;;;;12.68;8.43;;;26.40;73.00;;;;;;5066686;28;20021;-52
2022/01/16 11:38:41;;;;;;;19.55;8.85;;;26.50;73.10;;;;;;5066933;28;20024;-52
2022/01/16 11:41:23;;;;;;;13.05;8.90;;;26.50;73.20;;;;;;5066755;28;20079;-59
2022/01/16 11:43:52;;;;;;;15.93;8.63;;;26.50;73.10;;;;;;5066629;28;20155;-52
2022/01/16 11:46:21;;;;;;;10.57;8.40;;;26.50;73.10;;;;;;5066462;28;20333;-53
2022/01/16 11:48:53;;;;;;;17.65;9.02;;;26.50;73.00;;;;;;5066592;28;20373;-54
2022/01/16 11:51:48;;;;;;;11.27;8.20;;;26.50;72.90;;;;;;5066975;28;20070;-53
2022/01/16 11:54:26;;;;;;;16.77;8.55;;;26.50;73.10;;;;;;5066483;28;20092;-58
2022/01/16 11:57:07;;;;;;;10.70;8.20;;;26.50;73.00;;;;;;5065877;28;20013;-53
2022/01/16 11:59:34;;;;;;;17.60;8.13;;;26.50;72.90;;;;;;5065624;28;20021;-53
2022/01/16 12:02:24;;;;;;;15.45;9.10;;;26.60;73.00;;;;;;5065598;28;20103;-55
2022/01/16 12:04:54;;;;;;;16.10;8.80;;;26.60;72.90;;;;;;5066043;28;20084;-53
2022/01/16 12:07:45;;;;;;;15.52;9.15;;;26.60;72.90;;;;;;5066429;28;20028;-53
2022/01/16 12:10:12;;;;;;;10.15;8.50;;;26.60;72.90;;;;;;5066072;28;20208;-54
2022/01/16 12:12:38;;;;;;;15.40;9.30;;;26.60;73.00;;;;;;5066505;28;20036;-53
2022/01/16 12:15:19;;;;;;;15.60;9.07;;;26.60;73.30;;;;;;5066126;28;20099;-53
2022/01/16 12:17:51;;;;;;;11.82;8.80;;;26.60;73.60;;;;;;5066415;28;20035;-53
2022/01/16 12:20:18;;;;;;;12.70;9.13;;;26.60;73.80;;;;;;5065939;28;20021;-54
2022/01/16 12:22:57;;;;;;;15.18;9.07;;;26.60;73.90;;;;;;5066739;28;20028;-53
2022/01/16 12:25:29;;;;;;;14.50;8.85;;;26.70;74.30;;;;;;5066118;28;20031;-56
2022/01/16 12:27:58;;;;;;;14.85;9.55;;;26.60;74.10;;;;;;5065745;28;20277;-55
2022/01/16 12:30:44;;;;;;;28.83;9.40;;;26.70;74.30;;;;;;5065609;28;20024;-55
2022/01/16 12:33:32;;;;;;;20.70;9.48;;;26.70;74.50;;;;;;5065443;28;20027;-57
2022/01/16 12:36:05;;;;;;;17.70;9.77;;;26.70;74.50;;;;;;5066021;28;20033;-58
2022/01/16 12:38:34;;;;;;;16.50;8.45;;;26.70;74.30;;;;;;5065693;28;20029;-59
2022/01/16 12:41:10;;;;;;;12.27;8.30;;;26.80;74.50;;;;;;5065465;28;20036;-53
2022/01/16 12:43:48;;;;;;;12.27;8.38;;;26.80;74.60;;;;;;5065753;28;20021;-55
2022/01/16 12:46:39;;;;;;;14.27;8.80;;;26.80;74.60;;;;;;5065319;28;20205;-57
2022/01/16 12:49:26;;;;;;;16.98;8.77;;;26.80;74.70;;;;;;5065066;28;20037;-52
2022/01/16 12:51:56;;;;;;;14.40;8.57;;;26.80;74.80;;;;;;5065851;28;20293;-57
2022/01/16 12:54:25;;;;;;;13.18;8.65;;;26.90;74.90;;;;;;5065228;28;20024;-56
2022/01/16 12:56:57;;;;;;;13.90;8.30;;;26.90;74.90;;;;;;5065392;28;20233;-53
2022/01/16 12:59:30;;;;;;;13.47;8.93;;;26.90;75.00;;;;;;5064113;28;20184;-56
2022/01/16 13:01:58;;;;;;;14.10;9.20;;;26.90;75.00;;;;;;5063491;28;20037;-57
2022/01/16 13:04:39;;;;;;;12.13;8.82;;;26.90;75.10;;;;;;5064690;28;20199;-53
2022/01/16 13:07:15;;;;;;;14.55;8.93;;;26.90;75.10;;;;;;5064841;28;20025;-53
2022/01/16 13:09:42;;;;;;;14.30;8.95;;;27.00;75.30;;;;;;5064182;28;20016;-53
2022/01/16 13:12:12;;;;;;;12.98;8.93;;;27.00;75.80;;;;;;5064779;28;20028;-56
2022/01/16 13:14:42;;;;;;;12.38;8.85;;;27.00;75.30;;;;;;5063804;28;20021;-57
2022/01/16 13:17:11;;;;;;;16.88;9.25;;;27.00;75.60;;;;;;5056184;28;20306;-55
2022/01/16 13:19:49;;;;;;;14.30;8.55;;;27.10;75.70;;;;;;5043514;28;20043;-55
2022/01/16 13:22:19;;;;;;;16.77;8.88;;;27.10;75.70;;;;;;5045052;28;20214;-58
2022/01/16 13:24:55;;;;;;;12.98;8.98;;;27.10;75.70;;;;;;5044741;28;20064;-52
2022/01/16 13:27:31;;;;;;;10.40;7.85;;;27.10;75.70;;;;;;5044942;28;20093;-54
2022/01/16 13:30:00;;;;;;;17.55;8.52;;;27.10;75.70;;;;;;5059743;28;20341;-55
2022/01/16 13:32:38;;;;;;;12.43;9.00;;;27.10;75.80;;;;;;5071480;28;20123;-51
2022/01/16 13:35:28;;;;;;;19.88;8.77;;;27.20;76.10;;;;;;5068364;28;20025;-55
2022/01/16 13:38:06;;;;;;;15.20;8.88;;;27.20;76.20;;;;;;5051614;28;20075;-59
2022/01/16 13:40:33;;;;;;;13.15;8.43;;;27.20;76.10;;;;;;5043176;28;20022;-55
2022/01/16 13:43:10;;;;;;;13.30;8.68;;;27.20;76.10;;;;;;5044140;28;20025;-55
2022/01/16 13:45:41;;;;;;;11.65;8.38;;;27.20;76.20;;;;;;5043880;28;20306;-57
2022/01/16 13:48:19;;;;;;;12.30;8.13;;;27.30;76.20;;;;;;5044875;28;20109;-55
2022/01/16 13:50:46;;;;;;;9.98;7.88;;;27.30;76.20;;;;;;5074987;28;20082;-55
2022/01/16 13:53:16;;;;;;;12.90;8.20;;;27.30;76.20;;;;;;5073245;28;20080;-54